Time;durP1;ratioP1;P1;durP2;ratioP2;P2;SDS_P1;SDS_P2;PMS_P1;PMS_P2;Temp;Humidity;BMP_temperature;BMP_pressure;BME280_temperature;BME280_humidity;BME280_pressure;Samples;Min_cycle;Max_cycle;Signal;HPM_P1;HPM_P2
2023/04/20 00:00:34;;;;;;;7.40;4.40;;;12.20;45.60;;;;;;4973295;28;20460;-83
2023/04/20 00:03:34;;;;;;;4.80;4.03;;;12.20;45.90;;;;;;4967211;28;20479;-84
2023/04/20 00:06:44;;;;;;;3.53;3.20;;;12.10;46.00;;;;;;4967441;28;20468;-83
2023/04/20 00:09:44;;;;;;;6.03;3.80;;;12.30;46.40;;;;;;4967903;28;20476;-85
2023/04/20 00:12:50;;;;;;;4.30;3.50;;;12.10;46.40;;;;;;4984964;28;20467;-83
2023/04/20 00:15:45;;;;;;;5.40;3.90;;;12.00;46.80;;;;;;4962934;28;20551;-84
2023/04/20 00:22:20;;;;;;;5.00;3.90;;;11.90;46.90;;;;;;4901824;29;20479;-83
2023/04/20 00:24:50;;;;;;;4.07;3.60;;;11.90;47.00;;;;;;4885714;29;20485;-85
2023/04/20 00:27:50;;;;;;;6.27;3.57;;;12.10;46.60;;;;;;4882356;29;20517;-83
2023/04/20 00:31:36;;;;;;;;;;;;;;;;;;;;;
2023/04/20 00:34:47;;;;;;;4.03;3.63;;;11.90;45.90;;;;;;4885184;29;20456;-84
2023/04/20 00:38:18;;;;;;;4.90;3.53;;;11.90;45.80;;;;;;4889801;29;20470;-83
2023/04/20 00:42:03;;;;;;;;;;;;;;;;;;;;;
2023/04/20 00:52:39;;;;;;;5.03;3.53;;;12.00;45.60;;;;;;4878238;29;20817;-83
2023/04/20 00:59:04;;;;;;;4.47;3.30;;;12.10;45.30;;;;;;4934276;28;21233;-84
2023/04/20 01:01:51;;;;;;;4.87;3.57;;;11.90;45.00;;;;;;4944564;28;20500;-83
2023/04/20 01:04:41;;;;;;;5.40;4.53;;;11.70;45.40;;;;;;4963542;28;20463;-84
2023/04/20 01:07:51;;;;;;;3.50;3.20;;;11.80;46.10;;;;;;4988202;28;20558;-81
2023/04/20 01:13:41;;;;;;;5.00;3.67;;;11.60;45.90;;;;;;4958752;28;20464;-81
2023/04/20 01:16:46;;;;;;;4.10;3.80;;;11.70;46.10;;;;;;4945533;28;20490;-83
2023/04/20 01:19:27;;;;;;;4.70;3.40;;;11.70;46.30;;;;;;4945637;28;20455;-85
2023/04/20 01:22:22;;;;;;;3.83;3.43;;;11.70;46.50;;;;;;4967339;28;20452;-83
2023/04/20 01:25:06;;;;;;;4.43;3.50;;;11.70;47.20;;;;;;4904279;29;20454;-84
2023/04/20 01:28:17;;;;;;;3.77;3.47;;;11.70;47.70;;;;;;4909564;29;20466;-83
2023/04/20 01:31:24;;;;;;;4.40;3.70;;;12.00;47.70;;;;;;4910264;29;20500;-81
2023/04/20 01:38:03;;;;;;;3.97;3.53;;;12.00;47.20;;;;;;4904813;29;20479;-84
2023/04/20 01:41:25;;;;;;;3.97;3.50;;;11.80;47.70;;;;;;4850041;29;21032;-82
2023/04/20 01:44:20;;;;;;;3.20;3.00;;;11.80;48.10;;;;;;4867009;29;20531;-82
2023/04/20 01:47:37;;;;;;;6.20;4.50;;;11.60;48.50;;;;;;4835080;29;20469;-84
2023/04/20 01:53:52;;;;;;;6.17;4.10;;;11.70;49.30;;;;;;4849080;29;20610;-83
2023/04/20 01:57:01;;;;;;;4.30;3.80;;;11.60;49.00;;;;;;4905905;29;20473;-83
2023/04/20 02:00:03;;;;;;;5.43;3.93;;;11.50;49.10;;;;;;4927479;29;20525;-83
2023/04/20 02:03:01;;;;;;;6.50;3.83;;;11.50;49.30;;;;;;4922810;29;20452;-84
2023/04/20 02:05:34;;;;;;;4.30;3.90;;;11.50;49.80;;;;;;4927021;29;20530;-84
2023/04/20 02:11:28;;;;;;;5.70;4.03;;;11.60;49.60;;;;;;4913233;29;20460;-83
2023/04/20 02:17:37;;;;;;;5.43;3.77;;;11.40;50.30;;;;;;4918936;28;20882;-84
2023/04/20 02:20:27;;;;;;;6.70;3.97;;;11.70;50.30;;;;;;4969251;28;20550;-84
2023/04/20 02:23:05;;;;;;;5.17;4.10;;;11.50;50.30;;;;;;4971442;28;20543;-83
2023/04/20 02:26:03;;;;;;;5.43;4.20;;;11.40;50.60;;;;;;4994408;28;20466;-84
2023/04/20 02:28:38;;;;;;;6.40;3.87;;;11.70;50.70;;;;;;4970289;28;20470;-84
2023/04/20 02:31:19;;;;;;;4.70;4.00;;;11.80;50.60;;;;;;4979091;28;20456;-85
2023/04/20 02:33:48;;;;;;;4.70;3.47;;;11.80;50.50;;;;;;4986823;28;20436;-84
2023/04/20 02:36:23;;;;;;;5.23;4.10;;;11.70;50.30;;;;;;4986362;28;20486;-84
2023/04/20 02:38:52;;;;;;;3.83;3.53;;;11.60;50.40;;;;;;4971682;28;20475;-84
2023/04/20 02:41:20;;;;;;;4.93;4.07;;;11.50;50.50;;;;;;4967090;28;20470;-84
2023/04/20 02:43:57;;;;;;;6.30;4.17;;;11.70;50.70;;;;;;4968864;28;20460;-83
2023/04/20 02:46:40;;;;;;;5.20;4.37;;;11.80;50.90;;;;;;4966276;28;20510;-84
2023/04/20 02:49:09;;;;;;;4.27;3.87;;;11.80;50.20;;;;;;4966787;28;20476;-84
2023/04/20 02:51:42;;;;;;;5.80;4.30;;;11.50;50.40;;;;;;4975204;28;20480;-86
2023/04/20 02:54:31;;;;;;;4.10;3.80;;;11.30;51.00;;;;;;4967016;28;20472;-83
2023/04/20 02:57:06;;;;;;;5.00;4.50;;;11.50;51.30;;;;;;4965556;28;20476;-83
2023/04/20 02:59:38;;;;;;;8.07;4.97;;;11.40;50.90;;;;;;4964845;28;20849;-82
2023/04/20 03:02:11;;;;;;;4.27;3.83;;;11.40;51.10;;;;;;4965482;28;20478;-83
2023/04/20 03:04:39;;;;;;;4.80;4.40;;;11.40;51.50;;;;;;4967365;28;20510;-83
2023/04/20 03:07:19;;;;;;;4.40;4.00;;;11.40;51.40;;;;;;4967804;28;20487;-83
2023/04/20 03:10:19;;;;;;;6.37;3.80;;;11.40;51.00;;;;;;4968064;28;21319;-85
2023/04/20 03:12:48;;;;;;;7.20;4.27;;;11.30;50.50;;;;;;4973295;28;20524;-85
2023/04/20 03:15:16;;;;;;;4.27;3.87;;;11.30;49.70;;;;;;4974813;28;20531;-86
2023/04/20 03:17:48;;;;;;;4.90;4.17;;;11.30;49.30;;;;;;4971905;28;20547;-82
2023/04/20 03:20:22;;;;;;;5.17;3.90;;;11.50;48.90;;;;;;4972097;28;20463;-84
2023/04/20 03:23:04;;;;;;;4.83;3.97;;;11.60;48.30;;;;;;4980234;28;20468;-87
2023/04/20 03:25:45;;;;;;;7.63;4.43;;;11.80;47.70;;;;;;4985301;28;20709;-83
2023/04/20 03:28:33;;;;;;;6.80;4.00;;;11.40;47.70;;;;;;4985066;28;20460;-82
2023/04/20 03:31:06;;;;;;;6.80;3.77;;;11.20;48.80;;;;;;4987672;28;20511;-85
2023/04/20 03:33:38;;;;;;;4.30;3.90;;;11.10;49.30;;;;;;4988723;28;20428;-83
2023/04/20 03:36:11;;;;;;;6.73;4.20;;;11.30;49.10;;;;;;4987644;28;21654;-82
2023/04/20 03:38:41;;;;;;;4.23;3.67;;;11.50;48.50;;;;;;4987811;28;20456;-83
2023/04/20 03:41:09;;;;;;;7.70;4.40;;;11.60;46.90;;;;;;4987958;28;20440;-85
2023/04/20 03:43:41;;;;;;;3.93;3.60;;;11.40;46.70;;;;;;4989455;28;20471;-84
2023/04/20 03:46:32;;;;;;;4.60;3.80;;;11.10;46.80;;;;;;4983956;28;20463;-82
2023/04/20 03:49:13;;;;;;;7.40;4.30;;;11.40;46.60;;;;;;4975315;28;20486;-82
2023/04/20 03:51:52;;;;;;;6.00;3.00;;;11.10;46.50;;;;;;4969065;28;20478;-81
2023/04/20 03:54:22;;;;;;;5.50;3.73;;;11.10;47.00;;;;;;4969741;28;20540;-82
2023/04/20 03:56:55;;;;;;;4.27;3.43;;;11.10;47.10;;;;;;4968920;28;20488;-83
2023/04/20 03:59:25;;;;;;;4.47;3.53;;;11.20;47.20;;;;;;4967988;28;20496;-82
2023/04/20 04:02:04;;;;;;;5.73;3.93;;;11.10;47.30;;;;;;4998314;28;20482;-83
2023/04/20 04:04:39;;;;;;;5.53;4.43;;;11.00;47.80;;;;;;4968075;28;20464;-84
2023/04/20 04:07:07;;;;;;;3.50;3.20;;;11.10;48.00;;;;;;4981578;28;21110;-82
2023/04/20 04:09:36;;;;;;;5.40;3.70;;;11.10;48.30;;;;;;4965079;28;20551;-85
2023/04/20 04:12:20;;;;;;;3.93;3.30;;;11.00;48.40;;;;;;4967056;28;20463;-84
2023/04/20 04:15:07;;;;;;;6.37;3.93;;;10.90;48.70;;;;;;4965933;28;20526;-81
2023/04/20 04:17:38;;;;;;;5.93;3.90;;;11.00;49.10;;;;;;4983535;28;20578;-83
2023/04/20 04:20:18;;;;;;;6.13;4.10;;;11.10;49.20;;;;;;4965942;28;20463;-83
2023/04/20 04:22:45;;;;;;;6.30;3.97;;;11.00;49.20;;;;;;4961814;28;20490;-82
2023/04/20 04:25:24;;;;;;;4.50;3.47;;;11.00;49.30;;;;;;4966273;28;20487;-84
2023/04/20 04:28:23;;;;;;;5.53;3.83;;;11.30;49.10;;;;;;4995746;28;20488;-82
2023/04/20 04:31:16;;;;;;;5.97;4.27;;;11.40;48.50;;;;;;4965488;28;20495;-83
2023/04/20 04:34:00;;;;;;;4.77;3.90;;;11.10;48.80;;;;;;4969395;28;20464;-83
2023/04/20 04:36:30;;;;;;;7.03;4.47;;;11.20;49.50;;;;;;4968474;28;20520;-82
2023/04/20 04:38:58;;;;;;;5.00;3.60;;;11.10;49.80;;;;;;4983805;28;20602;-85
2023/04/20 04:41:45;;;;;;;4.63;3.80;;;11.10;50.30;;;;;;4964957;28;20490;-83
2023/04/20 04:44:32;;;;;;;8.23;4.90;;;11.10;50.60;;;;;;4965863;28;20463;-84
2023/04/20 04:47:04;;;;;;;5.20;4.20;;;11.00;51.50;;;;;;4968538;28;20517;-83
2023/04/20 04:49:39;;;;;;;5.20;3.80;;;11.10;51.70;;;;;;4967945;28;20539;-84
2023/04/20 04:52:24;;;;;;;6.37;4.20;;;11.00;51.70;;;;;;4966153;28;20964;-83
2023/04/20 04:55:09;;;;;;;6.90;4.40;;;11.10;53.00;;;;;;4966583;28;21005;-83
2023/04/20 04:57:39;;;;;;;5.00;3.90;;;10.80;53.00;;;;;;4967031;28;20519;-82
2023/04/20 05:00:16;;;;;;;7.90;4.53;;;10.60;53.50;;;;;;4973569;28;20471;-83
2023/04/20 05:02:47;;;;;;;5.87;4.13;;;10.90;54.70;;;;;;4975278;28;20468;-84
2023/04/20 05:05:41;;;;;;;5.20;4.20;;;10.60;54.90;;;;;;5308337;23;20605;-82
2023/04/20 05:08:25;;;;;;;5.73;3.73;;;10.60;55.30;;;;;;5433071;23;20531;-83
2023/04/20 05:11:18;;;;;;;8.47;5.00;;;10.50;56.10;;;;;;5088163;23;20539;-84
2023/04/20 05:13:59;;;;;;;10.60;5.57;;;10.50;56.90;;;;;;4993399;28;20467;-85
2023/04/20 05:16:28;;;;;;;4.77;4.27;;;10.50;58.10;;;;;;4986189;28;20470;-82
2023/04/20 05:19:07;;;;;;;8.00;4.47;;;10.40;58.30;;;;;;4970510;28;20943;-82
2023/04/20 05:21:50;;;;;;;5.90;3.97;;;10.50;58.30;;;;;;4977276;28;20632;-83
2023/04/20 05:27:31;;;;;;;11.43;10.30;;;10.70;60.00;;;;;;5120875;23;20506;-83
2023/04/20 05:30:37;;;;;;;4.90;4.37;;;10.60;59.10;;;;;;4986814;28;20613;-83
2023/04/20 05:33:22;;;;;;;7.67;3.80;;;10.50;59.70;;;;;;4974112;28;20447;-84
2023/04/20 05:36:01;;;;;;;7.00;5.53;;;10.80;60.80;;;;;;4972638;28;20539;-83
2023/04/20 05:38:34;;;;;;;6.43;4.87;;;10.80;60.00;;;;;;4970648;28;20459;-84
2023/04/20 05:41:26;;;;;;;6.17;4.13;;;11.00;60.70;;;;;;4984039;28;20524;-83
2023/04/20 05:44:14;;;;;;;5.83;5.10;;;10.90;59.80;;;;;;4968625;28;20459;-82
2023/04/20 05:47:08;;;;;;;5.13;4.50;;;10.80;59.70;;;;;;4987286;28;20505;-84
2023/04/20 05:49:53;;;;;;;7.40;4.40;;;10.60;60.10;;;;;;4973533;28;20542;-83
2023/04/20 05:52:44;;;;;;;5.53;4.97;;;10.70;60.80;;;;;;4972827;28;20526;-84
2023/04/20 05:55:23;;;;;;;7.87;4.90;;;10.70;61.40;;;;;;4974284;28;20524;-84
2023/04/20 05:57:58;;;;;;;5.63;4.20;;;10.80;61.60;;;;;;4971698;28;20559;-84
2023/04/20 06:00:36;;;;;;;5.97;4.93;;;10.70;61.80;;;;;;4973631;28;20493;-84
2023/04/20 06:03:12;;;;;;;5.70;5.20;;;10.90;61.10;;;;;;4975013;28;20791;-84
2023/04/20 06:05:56;;;;;;;5.77;5.27;;;10.80;60.50;;;;;;4975497;28;20463;-83
2023/04/20 06:08:41;;;;;;;4.83;4.43;;;10.70;61.80;;;;;;4975098;28;20452;-83
2023/04/20 06:11:14;;;;;;;8.60;5.03;;;10.60;62.90;;;;;;4985282;28;20598;-84
2023/04/20 06:13:44;;;;;;;5.47;5.03;;;10.60;63.80;;;;;;5322871;22;20494;-83
2023/04/20 06:16:20;;;;;;;5.97;4.80;;;10.70;64.40;;;;;;4998372;28;20494;-81
2023/04/20 06:19:06;;;;;;;6.73;4.70;;;10.40;65.10;;;;;;5001657;28;20488;-84
2023/04/20 06:22:15;;;;;;;8.00;5.00;;;10.40;66.70;;;;;;4989174;28;20471;-82
2023/04/20 06:24:52;;;;;;;7.40;5.80;;;10.50;66.90;;;;;;4989010;28;20448;-83
2023/04/20 06:30:00;;;;;;;7.20;5.40;;;10.50;71.50;;;;;;5470424;23;20509;-84
2023/04/20 06:32:37;;;;;;;5.27;4.77;;;10.40;73.00;;;;;;4987773;28;20451;-83
2023/04/20 06:35:09;;;;;;;6.53;5.97;;;10.30;75.20;;;;;;4987750;28;20479;-85
2023/04/20 06:37:43;;;;;;;5.93;5.40;;;10.30;78.10;;;;;;4975580;28;20481;-84
2023/04/20 06:40:19;;;;;;;6.27;5.67;;;10.30;80.20;;;;;;4971040;28;20473;-85
2023/04/20 06:42:54;;;;;;;8.20;5.40;;;10.50;80.90;;;;;;4963893;28;20447;-83
2023/04/20 06:45:33;;;;;;;8.20;6.03;;;10.50;81.00;;;;;;4967995;28;20472;-83
2023/04/20 06:48:12;;;;;;;8.73;6.07;;;10.30;82.60;;;;;;4966843;28;20469;-84
2023/04/20 06:51:21;;;;;;;6.57;5.90;;;10.40;84.40;;;;;;4970385;28;21230;-83
2023/04/20 06:53:58;;;;;;;13.13;5.87;;;10.40;85.70;;;;;;4970790;28;20480;-83
2023/04/20 06:56:29;;;;;;;5.47;4.97;;;10.40;87.60;;;;;;4969435;28;20473;-86
2023/04/20 06:58:56;;;;;;;5.43;4.93;;;10.30;87.10;;;;;;4971059;28;20456;-83
2023/04/20 07:01:39;;;;;;;6.20;5.60;;;10.10;88.20;;;;;;5030269;23;20491;-84
2023/04/20 07:04:31;;;;;;;8.93;5.47;;;10.00;90.10;;;;;;4986442;28;20668;-84
2023/04/20 07:07:12;;;;;;;6.83;6.17;;;10.00;90.80;;;;;;4963238;28;20488;-83
2023/04/20 07:09:42;;;;;;;5.87;5.37;;;10.00;91.60;;;;;;4950964;29;20473;-83
2023/04/20 07:12:19;;;;;;;6.33;5.70;;;10.10;92.30;;;;;;4967912;28;21099;-80
2023/04/20 07:14:53;;;;;;;6.10;5.50;;;10.20;92.70;;;;;;4954424;28;20461;-84
2023/04/20 07:17:26;;;;;;;5.40;4.90;;;10.20;93.20;;;;;;4951599;28;20507;-83
2023/04/20 07:20:05;;;;;;;6.40;5.30;;;10.20;93.50;;;;;;4952972;29;20537;-82
2023/04/20 07:22:37;;;;;;;6.33;5.70;;;10.40;93.40;;;;;;4952897;28;20457;-82
2023/04/20 07:25:11;;;;;;;6.67;6.07;;;10.40;94.00;;;;;;4950222;28;20560;-83
2023/04/20 07:27:41;;;;;;;6.27;5.60;;;10.20;93.50;;;;;;4951003;28;20528;-84
2023/04/20 07:30:10;;;;;;;6.17;5.57;;;10.10;94.30;;;;;;4951937;28;20473;-86
2023/04/20 07:32:51;;;;;;;15.73;5.93;;;10.00;94.60;;;;;;4948579;28;20461;-85
2023/04/20 07:35:18;;;;;;;5.17;4.67;;;10.00;95.00;;;;;;4949866;28;20461;-83
2023/04/20 07:37:57;;;;;;;7.07;5.80;;;10.20;95.40;;;;;;4953407;28;20583;-84
2023/04/20 07:40:31;;;;;;;6.90;4.97;;;10.30;95.30;;;;;;4949304;28;20464;-84
2023/04/20 07:43:03;;;;;;;5.13;4.60;;;10.20;95.40;;;;;;4951531;28;20532;-83
2023/04/20 07:45:37;;;;;;;4.93;4.20;;;10.10;95.70;;;;;;4949610;28;20465;-82
2023/04/20 07:48:20;;;;;;;4.90;4.50;;;10.50;96.00;;;;;;4947559;28;20476;-83
2023/04/20 07:54:01;;;;;;;4.97;4.47;;;10.60;95.60;;;;;;5061830;23;20503;-85
2023/04/20 07:56:49;;;;;;;4.00;3.70;;;10.70;95.10;;;;;;5114314;23;20497;-86
2023/04/20 07:59:16;;;;;;;4.90;4.17;;;10.80;95.00;;;;;;4997102;28;20455;-85
2023/04/20 08:01:51;;;;;;;3.90;3.60;;;10.80;95.00;;;;;;4990522;28;20463;-83
2023/04/20 08:04:31;;;;;;;4.20;3.90;;;10.60;95.20;;;;;;4985135;28;20451;-84
2023/04/20 08:07:09;;;;;;;4.17;3.83;;;10.70;95.20;;;;;;4987397;28;20498;-84
2023/04/20 08:09:45;;;;;;;3.53;3.20;;;10.70;94.90;;;;;;4987220;28;20451;-82
2023/04/20 08:15:25;;;;;;;3.87;3.50;;;10.70;94.60;;;;;;4987996;28;20459;-84
2023/04/20 08:18:10;;;;;;;3.80;3.50;;;10.70;94.80;;;;;;4957686;28;21003;-83
2023/04/20 08:21:08;;;;;;;4.33;4.03;;;10.80;94.70;;;;;;4997699;28;20459;-83
2023/04/20 08:24:06;;;;;;;3.37;3.07;;;10.80;94.70;;;;;;4930517;29;20450;-84
2023/04/20 08:26:53;;;;;;;3.57;3.27;;;10.70;94.00;;;;;;4917800;29;20477;-83
2023/04/20 08:29:27;;;;;;;3.40;3.10;;;10.70;93.70;;;;;;4918207;29;20460;-81
2023/04/20 08:32:21;;;;;;;;;;;;;;;;;;;;;
2023/04/20 08:35:47;;;;;;;;;;;;;;;;;;;;;
2023/04/20 08:38:26;;;;;;;3.30;3.10;;;10.80;93.60;;;;;;4929183;29;20545;-82
2023/04/20 08:41:00;;;;;;;3.23;3.00;;;10.60;93.90;;;;;;4921555;29;20464;-83
2023/04/20 08:43:48;;;;;;;3.20;2.83;;;10.60;93.60;;;;;;4934314;29;20560;-84
2023/04/20 08:46:37;;;;;;;3.70;3.50;;;10.70;93.70;;;;;;4934303;29;21005;-83
2023/04/20 08:49:42;;;;;;;3.00;2.80;;;11.00;93.40;;;;;;4931076;29;21069;-82
2023/04/20 08:52:43;;;;;;;3.97;3.00;;;10.90;92.20;;;;;;4916619;29;20839;-84
2023/04/20 08:55:38;;;;;;;3.57;3.20;;;11.00;91.80;;;;;;4933088;29;20509;-84
2023/04/20 08:58:31;;;;;;;4.47;3.10;;;10.90;92.20;;;;;;4916685;29;20445;-83
2023/04/20 09:01:35;;;;;;;3.40;3.20;;;10.90;91.60;;;;;;4930095;29;20453;-85
2023/04/20 09:04:34;;;;;;;3.50;3.20;;;11.00;92.00;;;;;;4938329;29;20596;-84
2023/04/20 09:07:34;;;;;;;3.10;2.90;;;10.90;92.00;;;;;;4966170;28;20484;-85
2023/04/20 09:10:36;;;;;;;4.03;3.70;;;11.00;90.90;;;;;;4950844;28;20472;-84
2023/04/20 09:13:46;;;;;;;3.13;2.93;;;10.80;91.20;;;;;;4952380;28;20496;-84
2023/04/20 09:16:26;;;;;;;3.20;2.97;;;10.70;91.30;;;;;;4949978;28;20512;-84
2023/04/20 09:19:28;;;;;;;;;;;;;;;;;;;;;
2023/04/20 09:22:28;;;;;;;;;;;;;;;;;;;;;
2023/04/20 09:25:44;;;;;;;;;;;;;;;;;;;;;
2023/04/20 09:28:42;;;;;;;2.93;2.73;;;10.90;91.20;;;;;;4960342;28;20500;-82
2023/04/20 09:32:01;;;;;;;2.80;2.60;;;10.70;91.00;;;;;;4940973;28;20556;-82
2023/04/20 09:35:14;;;;;;;3.90;2.77;;;10.20;91.40;;;;;;4988082;28;20463;-83
2023/04/20 09:41:48;;;;;;;4.43;3.00;;;10.40;94.80;;;;;;4987334;28;20474;-83
2023/04/20 09:48:18;;;;;;;2.77;2.50;;;10.90;93.70;;;;;;4987162;28;20832;-84
2023/04/20 09:51:18;;;;;;;;;;;;;;;;;;;;;
2023/04/20 09:57:40;;;;;;;2.50;2.30;;;10.80;94.70;;;;;;4992861;28;20517;-84
2023/04/20 10:00:44;;;;;;;2.10;1.47;;;11.20;95.60;;;;;;4972199;28;20435;-83
2023/04/20 10:07:33;;;;;;;0.80;0.80;;;10.30;92.30;;;;;;5006923;28;20591;-82
2023/04/20 10:10:23;;;;;;;1.17;0.70;;;9.90;93.20;;;;;;5005791;28;20478;-80
2023/04/20 10:13:09;;;;;;;0.80;0.70;;;9.90;93.90;;;;;;5008833;28;20473;-83
2023/04/20 10:16:29;;;;;;;1.53;0.73;;;9.90;94.30;;;;;;5005389;28;20502;-84
2023/04/20 10:19:28;;;;;;;1.53;0.83;;;10.10;94.50;;;;;;5006187;28;20470;-85
2023/04/20 10:26:04;;;;;;;1.03;0.90;;;10.60;94.10;;;;;;5006864;28;20458;-83
2023/04/20 10:29:13;;;;;;;1.10;1.00;;;10.90;94.10;;;;;;5003724;28;20443;-84
2023/04/20 10:32:39;;;;;;;;;;;;;;;;;;;;;
2023/04/20 10:35:47;;;;;;;1.40;1.30;;;11.00;93.60;;;;;;5010940;28;20499;-84
2023/04/20 10:38:55;;;;;;;4.63;1.37;;;11.30;93.10;;;;;;4938999;28;20637;-86
2023/04/20 10:42:18;;;;;;;1.57;1.20;;;11.60;92.40;;;;;;4903839;28;20457;-84
2023/04/20 10:45:40;;;;;;;1.60;1.10;;;11.60;91.70;;;;;;4853156;29;20452;-86
2023/04/20 10:49:10;;;;;;;1.00;1.00;;;11.80;92.40;;;;;;4804459;29;20479;-84
2023/04/20 10:52:40;;;;;;;1.57;0.90;;;11.90;91.90;;;;;;4784889;29;20503;-85
2023/04/20 10:56:13;;;;;;;0.93;0.93;;;12.30;91.00;;;;;;4800247;29;20460;-83
2023/04/20 10:59:01;;;;;;;1.17;0.93;;;11.90;90.30;;;;;;4764243;30;20568;-82
2023/04/20 11:05:14;;;;;;;0.70;0.70;;;11.30;89.80;;;;;;4801627;29;22540;-85
2023/04/20 11:08:24;;;;;;;0.80;0.80;;;11.20;90.80;;;;;;4812290;29;20484;-84
2023/04/20 11:11:29;;;;;;;0.80;0.80;;;11.30;90.90;;;;;;4805153;29;20936;-84
2023/04/20 11:14:48;;;;;;;2.40;0.80;;;11.70;90.20;;;;;;4818084;29;20481;-82
2023/04/20 11:18:30;;;;;;;0.70;0.70;;;11.60;86.30;;;;;;4853223;29;20546;-85
2023/04/20 11:21:41;;;;;;;0.60;0.60;;;11.70;86.10;;;;;;4908887;29;20447;-86
2023/04/20 11:25:16;;;;;;;0.80;0.80;;;12.20;85.10;;;;;;4993900;28;20447;-85
2023/04/20 11:28:14;;;;;;;1.23;1.10;;;12.20;80.60;;;;;;5001591;28;20491;-83
2023/04/20 11:31:05;;;;;;;0.90;0.90;;;12.30;80.60;;;;;;5002162;28;20467;-84
2023/04/20 11:41:11;;;;;;;1.23;1.13;;;13.50;74.50;;;;;;5000831;28;20462;-86
2023/04/20 11:47:26;;;;;;;1.53;0.97;;;12.40;77.30;;;;;;4988418;28;20470;-83
2023/04/20 11:50:54;;;;;;;1.40;1.20;;;12.20;80.60;;;;;;4993345;28;20438;-86
2023/04/20 11:54:11;;;;;;;1.50;1.40;;;12.20;79.40;;;;;;4992568;28;22119;-84
2023/04/20 12:01:22;;;;;;;2.27;2.07;;;12.90;80.00;;;;;;4921907;29;20557;-84
2023/04/20 12:04:48;;;;;;;2.17;1.97;;;14.30;74.70;;;;;;4991277;28;20486;-84
2023/04/20 12:08:05;;;;;;;3.60;3.30;;;14.40;69.70;;;;;;4947827;28;20525;-84
2023/04/20 12:11:56;;;;;;;2.40;2.20;;;14.30;65.80;;;;;;4985117;28;20450;-84
2023/04/20 12:14:58;;;;;;;3.80;3.27;;;14.00;64.90;;;;;;4867029;29;21596;-84
2023/04/20 12:18:09;;;;;;;5.00;3.80;;;13.70;66.70;;;;;;4827595;29;20490;-84
2023/04/20 12:21:38;;;;;;;3.47;2.70;;;13.80;67.70;;;;;;4829423;29;20687;-85
2023/04/20 12:24:45;;;;;;;2.60;2.40;;;13.60;69.00;;;;;;4899877;29;20984;-85
2023/04/20 12:28:06;;;;;;;;;;;;;;;;;;;;;
2023/04/20 12:31:30;;;;;;;2.53;2.33;;;14.00;69.90;;;;;;4873441;29;20455;-84
2023/04/20 12:34:48;;;;;;;2.83;2.50;;;13.90;65.90;;;;;;4904645;29;20449;-84
2023/04/20 12:38:04;;;;;;;2.53;2.33;;;13.70;67.80;;;;;;4884425;29;20486;-84
2023/04/20 12:45:12;;;;;;;;;;;;;;;;;;;;;
2023/04/20 12:47:53;;;;;;;3.90;3.57;;;13.00;67.90;;;;;;4905046;29;21049;-84
2023/04/20 12:50:58;;;;;;;;;;;;;;;;;;;;;
2023/04/20 12:54:18;;;;;;;2.90;2.70;;;13.30;68.00;;;;;;4904470;29;21563;-83
2023/04/20 12:58:15;;;;;;;3.70;3.40;;;14.00;66.80;;;;;;4997122;28;20446;-83
2023/04/20 13:04:35;;;;;;;7.70;3.70;;;15.20;60.40;;;;;;4936457;28;20803;-85
2023/04/20 13:08:19;;;;;;;4.50;4.10;;;15.30;58.80;;;;;;4962015;28;20503;-85
2023/04/20 13:11:34;;;;;;;11.73;4.90;;;14.90;59.00;;;;;;4985793;28;20470;-86
2023/04/20 13:17:47;;;;;;;4.63;4.23;;;15.40;58.40;;;;;;4991315;28;20471;-86
2023/04/20 13:21:08;;;;;;;;;;;;;;;;;;;;;
2023/04/20 13:24:28;;;;;;;;;;;;;;;;;;;;;
2023/04/20 13:27:41;;;;;;;4.70;4.30;;;15.60;56.90;;;;;;4918922;29;20469;-85
2023/04/20 13:34:45;;;;;;;4.97;4.50;;;15.80;54.80;;;;;;4866223;29;20448;-86
2023/04/20 13:37:29;;;;;;;5.50;5.00;;;16.30;54.90;;;;;;4882161;29;20482;-85
2023/04/20 13:40:48;;;;;;;4.97;4.00;;;16.40;54.50;;;;;;4845541;29;20829;-82
2023/04/20 13:44:26;;;;;;;4.67;4.07;;;16.30;53.50;;;;;;4856610;29;20445;-87
2023/04/20 13:48:06;;;;;;;4.30;4.00;;;15.60;54.70;;;;;;4847101;29;20486;-87
2023/04/20 13:51:21;;;;;;;4.20;3.90;;;15.30;55.90;;;;;;4772000;30;20442;-85
2023/04/20 13:54:24;;;;;;;6.17;5.67;;;15.90;53.70;;;;;;4758410;30;20465;-84
2023/04/20 13:57:35;;;;;;;4.70;4.30;;;15.80;53.60;;;;;;4724956;30;20526;-84
2023/04/20 14:00:43;;;;;;;4.70;4.30;;;16.30;53.80;;;;;;4749228;29;20509;-87
2023/04/20 14:06:45;;;;;;;3.67;3.37;;;16.20;52.00;;;;;;4819663;29;20472;-85
2023/04/20 14:10:00;;;;;;;4.90;4.47;;;16.40;51.10;;;;;;4817276;29;20448;-84
2023/04/20 14:12:45;;;;;;;4.77;4.37;;;16.00;50.70;;;;;;4800850;29;20483;-84
2023/04/20 14:16:07;;;;;;;5.13;4.33;;;16.00;51.50;;;;;;4802068;29;20635;-84
2023/04/20 14:19:02;;;;;;;4.70;4.30;;;16.30;50.30;;;;;;4840224;29;20701;-85
2023/04/20 14:21:47;;;;;;;4.27;3.80;;;16.20;52.10;;;;;;4836986;29;21279;-84
2023/04/20 14:24:46;;;;;;;;;;;;;;;;;;;;;
2023/04/20 14:27:59;;;;;;;;;;;;;;;;;;;;;
2023/04/20 14:31:14;;;;;;;6.30;4.53;;;15.50;52.00;;;;;;4988546;28;20529;-84
2023/04/20 14:34:13;;;;;;;4.30;3.90;;;15.20;51.90;;;;;;4989083;28;20431;-84
2023/04/20 14:37:06;;;;;;;5.00;4.20;;;15.20;53.30;;;;;;4989189;28;22146;-83
2023/04/20 14:40:00;;;;;;;4.83;4.37;;;15.30;53.50;;;;;;5001850;28;20471;-85
2023/04/20 14:42:40;;;;;;;4.43;4.03;;;15.50;53.30;;;;;;4986932;28;20517;-84
2023/04/20 14:45:49;;;;;;;4.10;3.70;;;15.70;51.60;;;;;;4989224;28;20463;-82
2023/04/20 14:48:27;;;;;;;6.20;4.80;;;15.50;50.50;;;;;;4988556;28;20463;-84
2023/04/20 14:51:18;;;;;;;5.67;4.33;;;15.30;51.40;;;;;;4986524;28;20538;-84
2023/04/20 14:54:19;;;;;;;5.00;4.60;;;15.30;52.60;;;;;;4988570;28;20534;-85
2023/04/20 14:57:11;;;;;;;4.00;3.60;;;15.20;53.30;;;;;;4989447;28;20775;-84
2023/04/20 15:00:26;;;;;;;;;;;;;;;;;;;;;
2023/04/20 15:06:57;;;;;;;5.63;4.93;;;14.80;52.40;;;;;;5003300;28;20865;-88
2023/04/20 15:10:10;;;;;;;;;;;;;;;;;;;;;
2023/04/20 15:13:39;;;;;;;;;;;;;;;;;;;;;
2023/04/20 15:17:02;;;;;;;4.97;4.50;;;14.90;53.60;;;;;;4962998;28;20538;-85
2023/04/20 15:20:10;;;;;;;5.03;4.53;;;15.00;53.10;;;;;;4962968;28;20495;-85
2023/04/20 15:27:11;;;;;;;;;;;;;;;;;;;;;
2023/04/20 15:30:06;;;;;;;5.47;4.97;;;14.70;53.10;;;;;;4956451;29;20679;-85
2023/04/20 15:33:58;;;;;;;;;;;;;;;;;;;;;
2023/04/20 15:37:16;;;;;;;4.57;4.23;;;14.70;52.60;;;;;;4877682;29;20488;-83
2023/04/20 15:40:21;;;;;;;;;;;;;;;;;;;;;
2023/04/20 15:43:33;;;;;;;4.70;4.20;;;14.70;52.80;;;;;;4873219;29;20575;-85
2023/04/20 15:46:45;;;;;;;4.80;4.30;;;14.80;52.80;;;;;;4875985;29;20465;-85
2023/04/20 16:00:47;;;;;;;4.50;4.10;;;14.30;53.50;;;;;;4851975;29;20465;-84
2023/04/20 16:03:43;;;;;;;4.73;4.33;;;14.40;53.30;;;;;;4890380;29;20452;-83
2023/04/20 16:06:37;;;;;;;4.40;4.00;;;14.70;53.50;;;;;;4888038;29;20452;-83
2023/04/20 16:09:43;;;;;;;5.73;3.97;;;14.60;52.00;;;;;;4887522;29;20970;-85
2023/04/20 16:13:13;;;;;;;;;;;;;;;;;;;;;
2023/04/20 16:16:38;;;;;;;4.40;4.00;;;14.60;52.30;;;;;;4941525;29;20454;-85
2023/04/20 16:20:04;;;;;;;4.70;4.30;;;14.90;52.50;;;;;;4921694;29;20728;-85
2023/04/20 16:33:57;;;;;;;4.10;3.73;;;15.20;51.60;;;;;;4938421;29;20488;-84
2023/04/20 16:40:55;;;;;;;4.67;3.57;;;15.10;51.50;;;;;;5216636;23;20487;-84
2023/04/20 16:43:28;;;;;;;3.70;3.40;;;15.30;50.90;;;;;;5233758;23;20496;-83
2023/04/20 16:46:04;;;;;;;3.03;2.83;;;15.20;50.50;;;;;;4965943;28;20455;-85
2023/04/20 16:48:43;;;;;;;5.87;3.20;;;15.10;50.70;;;;;;4945282;28;20465;-84
2023/04/20 16:51:19;;;;;;;3.60;3.30;;;14.60;52.10;;;;;;4930723;29;20485;-83
2023/04/20 16:53:52;;;;;;;3.33;3.10;;;14.20;52.80;;;;;;4944849;28;20541;-83
2023/04/20 16:56:27;;;;;;;3.60;3.30;;;14.20;54.00;;;;;;4934434;29;20519;-85
2023/04/20 16:58:59;;;;;;;2.50;2.20;;;14.10;53.80;;;;;;4931742;29;20485;-85
2023/04/20 17:01:34;;;;;;;3.53;3.23;;;14.00;55.40;;;;;;4933802;29;20485;-84
2023/04/20 17:04:10;;;;;;;3.47;3.17;;;13.80;56.80;;;;;;4933630;29;20469;-81
2023/04/20 17:06:37;;;;;;;2.97;2.77;;;13.60;57.20;;;;;;4934083;29;20506;-83
2023/04/20 17:09:05;;;;;;;3.17;2.80;;;13.40;57.70;;;;;;4932425;28;20450;-83
2023/04/20 17:11:40;;;;;;;3.77;3.47;;;13.40;58.60;;;;;;4944445;28;20461;-83
2023/04/20 17:14:13;;;;;;;4.07;3.50;;;13.30;58.80;;;;;;4944881;28;20466;-86
2023/04/20 17:16:43;;;;;;;4.17;3.77;;;13.30;59.80;;;;;;4961070;28;20484;-83
2023/04/20 17:19:16;;;;;;;3.20;2.90;;;13.20;61.00;;;;;;4945126;28;20438;-84
2023/04/20 17:21:49;;;;;;;4.03;3.73;;;13.00;62.50;;;;;;4961124;28;20469;-83
2023/04/20 17:24:19;;;;;;;4.37;4.00;;;12.90;64.10;;;;;;4944946;28;20450;-85
2023/04/20 17:26:48;;;;;;;4.20;3.70;;;12.90;65.20;;;;;;4945264;28;20486;-83
2023/04/20 17:29:15;;;;;;;4.40;4.00;;;13.00;66.00;;;;;;4945865;28;20446;-83
2023/04/20 17:31:47;;;;;;;4.10;3.70;;;12.80;65.80;;;;;;4945887;28;20497;-83
2023/04/20 17:34:22;;;;;;;5.00;4.60;;;12.70;66.60;;;;;;4946791;28;20521;-83
2023/04/20 17:37:10;;;;;;;3.57;3.27;;;12.60;67.30;;;;;;4938235;28;20473;-84